Time;durP1;ratioP1;P1;durP2;ratioP2;P2;SDS_P1;SDS_P2;PMS_P1;PMS_P2;Temp;Humidity;BMP_temperature;BMP_pressure;BME280_temperature;BME280_humidity;BME280_pressure;Samples;Min_cycle;Max_cycle;Signal;HPM_P1;HPM_P2
2023/09/30 00:01:35;;;;;;;0.40;0.30;;;;;;;17.44;99.68;101077.13;5012656;28;20522;-51
2023/09/30 00:04:03;;;;;;;0.40;0.20;;;;;;;17.45;99.76;101085.09;5012367;28;20976;-52
2023/09/30 00:06:30;;;;;;;0.40;0.20;;;;;;;17.75;98.77;101090.06;5011952;28;20508;-52
2023/09/30 00:08:57;;;;;;;0.40;0.20;;;;;;;17.76;98.07;101091.81;4997263;28;21009;-52
2023/09/30 00:11:23;;;;;;;0.40;0.20;;;;;;;17.90;97.40;101091.19;5006137;28;20495;-52
2023/09/30 00:13:50;;;;;;;0.40;0.20;;;;;;;18.07;96.59;101096.66;5012193;28;20453;-52
2023/09/30 00:16:17;;;;;;;0.40;0.20;;;;;;;18.21;95.18;101104.94;5006384;28;20526;-52
2023/09/30 00:18:44;;;;;;;0.40;0.20;;;;;;;18.16;95.33;101093.53;5012375;28;20453;-52
2023/09/30 00:21:11;;;;;;;0.40;0.20;;;;;;;18.30;94.45;101103.66;5012148;28;20452;-52
2023/09/30 00:23:38;;;;;;;0.50;0.50;;;;;;;18.20;95.72;101095.13;5012092;28;20496;-52
2023/09/30 00:26:05;;;;;;;0.40;0.20;;;;;;;18.53;93.92;101100.75;5011995;28;20524;-52
2023/09/30 00:28:31;;;;;;;0.40;0.20;;;;;;;18.93;92.51;101107.78;5012074;28;21098;-52
2023/09/30 00:30:57;;;;;;;0.40;0.20;;;;;;;18.62;92.87;101102.97;4999265;28;20450;-52
2023/09/30 00:33:25;;;;;;;0.40;0.20;;;;;;;18.66;90.92;101098.38;5012193;28;20474;-51
2023/09/30 00:35:51;;;;;;;0.40;0.20;;;;;;;18.61;91.63;101111.13;5012010;28;20425;-52
2023/09/30 00:38:18;;;;;;;0.40;0.20;;;;;;;18.33;91.48;101106.19;5009088;28;20925;-52
2023/09/30 00:40:49;;;;;;;0.40;0.30;;;;;;;18.26;92.45;101107.44;5011992;28;20880;-52
2023/09/30 00:43:20;;;;;;;0.40;0.20;;;;;;;18.48;90.92;101118.91;5012209;28;20456;-52
2023/09/30 00:45:49;;;;;;;0.40;0.20;;;;;;;18.28;91.94;101116.31;4999564;28;20575;-51
2023/09/30 00:48:16;;;;;;;0.40;0.20;;;;;;;18.19;92.25;101119.44;5012186;28;20464;-52
2023/09/30 00:50:43;;;;;;;0.40;0.20;;;;;;;18.05;93.07;101120.94;5011691;28;20455;-52
2023/09/30 00:53:10;;;;;;;0.40;0.20;;;;;;;18.05;92.58;101125.47;5012179;28;20531;-51
2023/09/30 00:55:37;;;;;;;0.40;0.20;;;;;;;17.85;93.72;101131.75;5011994;28;20532;-52
2023/09/30 00:58:04;;;;;;;0.40;0.20;;;;;;;17.98;93.77;101146.41;5011954;28;20864;-52
2023/09/30 01:00:31;;;;;;;0.40;0.20;;;;;;;17.79;94.46;101142.78;5011879;28;20480;-52
2023/09/30 01:03:03;;;;;;;0.40;0.20;;;;;;;17.77;94.24;101139.28;5011890;28;20470;-52
2023/09/30 01:05:31;;;;;;;2.00;1.90;;;;;;;17.68;94.46;101136.97;5011698;28;20476;-52
2023/09/30 01:07:58;;;;;;;0.40;0.20;;;;;;;17.65;94.68;101146.03;5016950;23;20942;-52
2023/09/30 01:10:25;;;;;;;0.40;0.20;;;;;;;17.59;94.48;101140.09;5003904;28;20449;-52
2023/09/30 01:12:51;;;;;;;0.40;0.20;;;;;;;17.41;95.22;101139.94;5004935;28;20460;-53
2023/09/30 01:15:17;;;;;;;0.40;0.20;;;;;;;17.27;96.07;101139.66;5011822;28;20455;-52
2023/09/30 01:17:44;;;;;;;0.40;0.20;;;;;;;16.97;96.55;101141.81;5005826;28;20480;-52
2023/09/30 01:20:16;;;;;;;0.40;0.30;;;;;;;16.92;96.64;101149.19;4998573;28;20428;-52
2023/09/30 01:22:45;;;;;;;0.40;0.20;;;;;;;16.71;97.72;101147.34;4998398;28;20480;-53
2023/09/30 01:25:12;;;;;;;0.40;0.20;;;;;;;16.55;98.55;101149.75;4998936;28;20492;-52
2023/09/30 01:27:38;;;;;;;0.40;0.20;;;;;;;16.66;98.36;101155.56;4998275;28;20560;-52
2023/09/30 01:30:05;;;;;;;0.40;0.20;;;;;;;17.01;96.01;101156.88;4990338;28;20534;-52
2023/09/30 01:32:32;;;;;;;0.40;0.20;;;;;;;16.86;96.36;101155.69;4992047;28;20504;-52
2023/09/30 01:34:58;;;;;;;0.40;0.20;;;;;;;17.32;95.33;101151.09;4997506;28;20426;-52
2023/09/30 01:37:28;;;;;;;0.40;0.20;;;;;;;16.93;95.56;101155.44;4993820;28;20833;-52
2023/09/30 01:39:55;;;;;;;0.40;0.20;;;;;;;16.85;96.19;101159.28;4998318;28;20508;-52
2023/09/30 01:42:21;;;;;;;0.40;0.20;;;;;;;17.02;96.01;101155.94;4998367;28;20822;-52
2023/09/30 01:44:48;;;;;;;0.40;0.20;;;;;;;16.82;96.10;101145.13;4989392;28;20458;-52
2023/09/30 01:47:14;;;;;;;0.40;0.20;;;;;;;16.63;96.60;101130.66;4975710;28;20558;-51
2023/09/30 01:49:41;;;;;;;0.40;0.20;;;;;;;16.52;97.40;101123.91;4997365;28;20463;-52
2023/09/30 01:52:07;;;;;;;0.40;0.20;;;;;;;16.35;98.44;101128.19;4997575;28;20492;-51
2023/09/30 01:54:34;;;;;;;0.40;0.20;;;;;;;16.52;97.91;101131.09;4997656;28;20453;-51
2023/09/30 01:57:00;;;;;;;0.40;0.20;;;;;;;16.49;97.75;101128.53;4997643;28;21008;-52
2023/09/30 01:59:27;;;;;;;0.40;0.20;;;;;;;16.47;97.87;101127.72;4996051;28;20454;-51
2023/09/30 02:01:54;;;;;;;0.40;0.20;;;;;;;16.64;97.75;101117.19;4996873;28;20453;-51
2023/09/30 02:04:20;;;;;;;0.50;0.40;;;;;;;16.47;97.31;101123.22;4997040;28;20545;-51
2023/09/30 02:06:47;;;;;;;0.40;0.20;;;;;;;16.37;98.73;101132.56;4996001;28;20540;-50
2023/09/30 02:09:13;;;;;;;0.40;0.20;;;;;;;16.55;98.05;101147.94;4977495;28;20482;-51
2023/09/30 02:11:41;;;;;;;0.40;0.20;;;;;;;16.61;97.61;101152.22;4991644;28;20456;-51
2023/09/30 02:14:07;;;;;;;0.40;0.20;;;;;;;16.58;97.84;101166.63;4993613;28;20855;-51
2023/09/30 02:16:34;;;;;;;0.40;0.30;;;;;;;16.56;98.13;101170.28;4992126;28;20977;-52
2023/09/30 02:19:00;;;;;;;0.40;0.20;;;;;;;16.45;97.92;101154.63;4994576;28;20556;-52
2023/09/30 02:21:28;;;;;;;0.40;0.20;;;;;;;16.32;98.70;101150.66;4994586;28;20486;-51
2023/09/30 02:23:54;;;;;;;0.40;0.20;;;;;;;16.28;98.66;101149.88;4996454;28;20889;-51
2023/09/30 02:26:25;;;;;;;0.40;0.20;;;;;;;16.29;98.67;101165.03;4997367;28;20503;-51
2023/09/30 02:28:52;;;;;;;0.40;0.20;;;;;;;16.12;98.92;101166.63;4995373;28;21046;-51
2023/09/30 02:31:19;;;;;;;0.40;0.20;;;;;;;15.98;99.46;101165.34;4981317;28;20536;-51
2023/09/30 02:33:45;;;;;;;0.40;0.20;;;;;;;15.98;98.52;101180.56;4994620;28;20533;-50
2023/09/30 02:36:13;;;;;;;0.40;0.20;;;;;;;15.93;98.64;101185.22;4994197;28;20822;-51
2023/09/30 02:38:40;;;;;;;0.40;0.20;;;;;;;15.95;98.71;101194.06;4991107;28;20478;-52
2023/09/30 02:41:06;;;;;;;0.40;0.20;;;;;;;15.70;98.86;101194.06;4995627;28;20459;-52
2023/09/30 02:43:33;;;;;;;0.40;0.30;;;;;;;15.71;99.33;101201.19;4994359;28;20511;-52
2023/09/30 02:45:59;;;;;;;0.40;0.20;;;;;;;15.62;99.66;101209.53;4984661;28;21013;-51
2023/09/30 02:48:26;;;;;;;0.40;0.20;;;;;;;15.68;99.54;101215.56;4996894;28;20521;-52
2023/09/30 02:50:54;;;;;;;0.40;0.20;;;;;;;15.62;99.77;101210.44;4993934;28;20435;-52
2023/09/30 02:53:22;;;;;;;0.40;0.20;;;;;;;15.61;99.82;101197.94;4993979;28;20454;-52
2023/09/30 02:55:49;;;;;;;0.40;0.20;;;;;;;15.63;99.20;101196.09;4994833;28;20432;-51
2023/09/30 02:58:16;;;;;;;0.40;0.20;;;;;;;15.60;99.17;101190.81;4994019;28;20501;-51
2023/09/30 03:00:49;;;;;;;0.40;0.20;;;;;;;15.58;100.00;101192.66;4993848;28;20464;-52
2023/09/30 03:03:15;;;;;;;0.40;0.20;;;;;;;15.54;100.00;101176.75;4993818;28;20501;-52
2023/09/30 03:05:42;;;;;;;0.40;0.20;;;;;;;15.61;100.00;101178.31;4995911;28;20495;-52
2023/09/30 03:08:09;;;;;;;0.40;0.20;;;;;;;15.81;99.90;101166.88;4974907;28;20453;-52
2023/09/30 03:10:40;;;;;;;0.40;0.20;;;;;;;15.67;99.72;101168.25;4983918;28;20521;-52
2023/09/30 03:13:08;;;;;;;0.40;0.20;;;;;;;15.65;99.41;101174.59;4996570;28;20454;-51
2023/09/30 03:15:35;;;;;;;0.40;0.20;;;;;;;15.86;98.80;101167.59;4987644;28;20483;-51
2023/09/30 03:18:03;;;;;;;0.40;0.20;;;;;;;15.60;98.93;101179.22;4995694;28;20473;-52
2023/09/30 03:20:30;;;;;;;0.40;0.20;;;;;;;15.56;99.09;101197.19;4997321;28;20841;-53
2023/09/30 03:22:57;;;;;;;0.40;0.20;;;;;;;15.63;99.14;101216.69;4995152;28;20453;-52
2023/09/30 03:25:23;;;;;;;0.40;0.20;;;;;;;15.65;98.70;101220.16;4993513;28;20428;-53
2023/09/30 03:27:50;;;;;;;0.40;0.20;;;;;;;15.57;98.54;101217.72;4995178;28;20568;-52
2023/09/30 03:30:17;;;;;;;0.40;0.20;;;;;;;15.44;99.20;101218.19;4983832;28;20831;-52
2023/09/30 03:32:44;;;;;;;0.40;0.20;;;;;;;15.39;99.46;101215.66;4991293;28;21123;-51
2023/09/30 03:35:16;;;;;;;0.40;0.20;;;;;;;15.39;99.75;101203.13;4996211;28;20458;-52
2023/09/30 03:37:44;;;;;;;0.40;0.20;;;;;;;15.32;99.93;101204.25;4993297;28;20516;-51
2023/09/30 03:40:14;;;;;;;0.40;0.20;;;;;;;15.37;99.88;101201.44;4994857;28;20456;-51
2023/09/30 03:42:44;;;;;;;0.40;0.30;;;;;;;15.28;100.00;101209.78;4992987;28;20939;-51
2023/09/30 03:45:13;;;;;;;0.40;0.20;;;;;;;15.23;99.73;101207.25;4982235;28;20433;-51
2023/09/30 03:47:41;;;;;;;0.40;0.20;;;;;;;15.34;100.00;101214.91;4994506;28;20986;-52
2023/09/30 03:50:14;;;;;;;0.40;0.20;;;;;;;15.32;100.00;101214.09;4993029;28;20478;-52
2023/09/30 03:52:45;;;;;;;0.40;0.20;;;;;;;15.39;100.00;101212.97;4968048;28;20477;-52
2023/09/30 03:55:15;;;;;;;0.40;0.20;;;;;;;15.15;100.00;101213.78;4992996;28;20522;-52
2023/09/30 03:57:42;;;;;;;0.50;0.20;;;;;;;15.29;100.00;101203.50;4993129;28;20448;-53
2023/09/30 04:00:18;;;;;;;0.40;0.20;;;;;;;15.20;100.00;101206.47;4992757;28;21014;-52
2023/09/30 04:02:49;;;;;;;1.03;1.03;;;;;;;15.22;100.00;101204.63;4993177;28;20449;-52
2023/09/30 04:05:17;;;;;;;0.40;0.20;;;;;;;15.36;100.00;101208.59;4992853;28;20455;-52
2023/09/30 04:07:43;;;;;;;0.40;0.20;;;;;;;15.26;100.00;101209.84;4987610;28;20476;-52
2023/09/30 04:10:10;;;;;;;0.40;0.20;;;;;;;15.29;100.00;101211.53;4977773;28;20453;-52
2023/09/30 04:12:36;;;;;;;0.40;0.20;;;;;;;15.26;100.00;101211.63;4992893;28;20450;-53
2023/09/30 04:15:03;;;;;;;0.40;0.30;;;;;;;15.22;100.00;101210.00;4986975;28;20428;-53
2023/09/30 04:17:30;;;;;;;0.40;0.20;;;;;;;15.19;99.90;101210.94;4993116;28;20469;-51
2023/09/30 04:19:57;;;;;;;0.40;0.20;;;;;;;15.09;100.00;101217.56;4993489;28;20462;-51
2023/09/30 04:22:25;;;;;;;0.40;0.20;;;;;;;14.96;100.00;101224.22;4995317;28;20507;-51
2023/09/30 04:24:52;;;;;;;0.40;0.20;;;;;;;14.84;100.00;101212.09;4995772;28;20454;-52
2023/09/30 04:27:19;;;;;;;0.40;0.20;;;;;;;14.80;100.00;101211.31;4995826;28;20551;-52
2023/09/30 04:29:46;;;;;;;0.40;0.30;;;;;;;14.69;100.00;101210.78;4990536;28;20538;-52
2023/09/30 04:32:13;;;;;;;0.40;0.20;;;;;;;14.45;99.29;101211.50;4988053;28;20445;-52
2023/09/30 04:34:40;;;;;;;0.40;0.20;;;;;;;14.35;98.82;101221.56;4994814;28;20918;-52
2023/09/30 04:37:09;;;;;;;0.40;0.20;;;;;;;14.19;98.74;101215.78;4992964;28;20992;-51
2023/09/30 04:39:35;;;;;;;0.40;0.20;;;;;;;14.05;98.45;101227.78;4993685;28;20446;-52
2023/09/30 04:42:03;;;;;;;0.40;0.20;;;;;;;14.03;99.08;101217.13;4994752;28;20508;-50
2023/09/30 04:44:30;;;;;;;0.40;0.30;;;;;;;13.98;99.46;101226.19;4990515;28;20537;-51
2023/09/30 04:46:57;;;;;;;0.40;0.20;;;;;;;13.72;98.61;101222.44;4989206;28;20554;-51
2023/09/30 04:49:24;;;;;;;0.40;0.20;;;;;;;13.73;98.27;101228.66;4996358;28;20452;-51
2023/09/30 04:51:50;;;;;;;0.40;0.20;;;;;;;13.61;98.71;101232.53;4996169;28;20485;-51
2023/09/30 04:54:17;;;;;;;0.40;0.20;;;;;;;13.57;99.24;101222.84;4996224;28;20793;-53
2023/09/30 04:56:43;;;;;;;0.40;0.20;;;;;;;13.54;98.80;101226.47;4997197;28;20926;-52
2023/09/30 04:59:09;;;;;;;0.40;0.20;;;;;;;13.46;97.63;101224.91;4998951;28;20540;-53
2023/09/30 05:01:36;;;;;;;0.40;0.20;;;;;;;13.36;98.19;101226.06;4998864;28;20481;-53
2023/09/30 05:04:03;;;;;;;0.40;0.20;;;;;;;13.17;98.13;101236.28;4998867;28;20525;-53
2023/09/30 05:06:32;;;;;;;0.40;0.20;;;;;;;13.31;99.48;101229.72;4999195;28;20494;-53
2023/09/30 05:08:59;;;;;;;0.40;0.20;;;;;;;13.32;99.05;101230.59;4974833;28;20561;-53
2023/09/30 05:11:26;;;;;;;0.40;0.20;;;;;;;13.32;100.00;101236.81;4992324;28;20461;-53
2023/09/30 05:13:52;;;;;;;0.40;0.20;;;;;;;13.54;99.79;101252.28;4971558;28;20516;-53
2023/09/30 05:16:19;;;;;;;0.40;0.20;;;;;;;13.74;99.83;101244.66;4991157;28;20490;-51
2023/09/30 05:18:45;;;;;;;0.40;0.20;;;;;;;13.60;99.25;101241.47;4997708;28;20609;-52
2023/09/30 05:21:12;;;;;;;0.40;0.20;;;;;;;13.45;99.64;101240.06;4997905;28;21033;-52
2023/09/30 05:23:38;;;;;;;0.40;0.20;;;;;;;13.47;99.10;101240.91;4998171;28;20454;-51
2023/09/30 05:26:05;;;;;;;0.40;0.20;;;;;;;13.57;100.00;101242.44;4998376;28;20500;-52
2023/09/30 05:28:32;;;;;;;0.40;0.20;;;;;;;13.38;100.00;101232.22;4997776;28;20556;-52
2023/09/30 05:30:58;;;;;;;0.40;0.20;;;;;;;13.75;100.00;101229.50;4984674;28;20446;-52
2023/09/30 05:33:25;;;;;;;0.40;0.20;;;;;;;13.50;100.00;101232.81;4997365;28;20504;-52
2023/09/30 05:35:52;;;;;;;0.40;0.20;;;;;;;13.66;99.99;101240.41;4997096;28;20457;-52
2023/09/30 05:38:20;;;;;;;0.40;0.20;;;;;;;13.38;100.00;101248.25;4982052;28;21053;-52
2023/09/30 05:40:47;;;;;;;0.40;0.20;;;;;;;13.40;99.41;101238.41;4977468;28;20454;-52
2023/09/30 05:43:14;;;;;;;0.40;0.20;;;;;;;13.41;100.00;101235.69;4995425;28;20453;-52
2023/09/30 05:45:48;;;;;;;0.40;0.20;;;;;;;13.24;98.86;101233.44;4982620;28;20457;-53
2023/09/30 05:48:16;;;;;;;0.40;0.20;;;;;;;13.15;98.54;101241.63;4995236;28;20461;-52
2023/09/30 05:50:43;;;;;;;0.40;0.20;;;;;;;13.14;99.20;101242.56;4994849;28;20457;-53
2023/09/30 05:53:13;;;;;;;0.40;0.20;;;;;;;13.10;99.74;101246.22;4994641;28;20878;-53
2023/09/30 05:55:42;;;;;;;0.40;0.20;;;;;;;13.18;100.00;101251.38;4995072;28;20508;-53
2023/09/30 05:58:09;;;;;;;0.40;0.20;;;;;;;13.35;100.00;101246.53;4994839;28;21029;-53
2023/09/30 06:00:36;;;;;;;0.40;0.20;;;;;;;13.26;99.95;101247.63;4994825;28;20454;-53
2023/09/30 06:03:06;;;;;;;0.40;0.20;;;;;;;13.27;99.46;101260.06;4994681;28;20456;-52
2023/09/30 06:05:33;;;;;;;0.40;0.20;;;;;;;13.35;100.00;101273.25;4995007;28;20523;-51
2023/09/30 06:08:03;;;;;;;0.40;0.20;;;;;;;13.35;99.90;101278.59;4989334;28;20494;-51
2023/09/30 06:10:31;;;;;;;0.40;0.20;;;;;;;13.41;99.58;101272.22;4969596;28;20880;-51
2023/09/30 06:12:58;;;;;;;0.40;0.20;;;;;;;13.24;100.00;101270.81;4994761;28;20461;-52
2023/09/30 06:15:28;;;;;;;0.40;0.20;;;;;;;13.34;99.12;101279.50;4988686;28;20947;-52
2023/09/30 06:17:56;;;;;;;0.40;0.20;;;;;;;13.24;99.77;101286.84;4981251;28;20537;-52
2023/09/30 06:20:26;;;;;;;0.40;0.20;;;;;;;13.31;100.00;101292.94;4994667;28;20454;-53
2023/09/30 06:22:53;;;;;;;0.40;0.20;;;;;;;13.42;99.91;101292.66;4994620;28;20445;-52
2023/09/30 06:25:21;;;;;;;0.40;0.20;;;;;;;13.47;100.00;101286.31;4994870;28;20449;-52
2023/09/30 06:27:48;;;;;;;0.40;0.20;;;;;;;13.52;100.00;101281.72;4994079;28;21177;-52
2023/09/30 06:30:15;;;;;;;0.40;0.20;;;;;;;13.37;100.00;101275.88;4985423;28;20450;-52
2023/09/30 06:32:43;;;;;;;0.40;0.20;;;;;;;13.45;100.00;101281.94;4990827;28;20540;-52
2023/09/30 06:35:10;;;;;;;0.40;0.20;;;;;;;13.59;100.00;101285.13;4994570;28;20453;-52
2023/09/30 06:37:40;;;;;;;0.40;0.20;;;;;;;13.84;100.00;101288.03;4991203;28;20537;-52
2023/09/30 06:40:08;;;;;;;0.40;0.20;;;;;;;14.04;100.00;101285.72;4994201;28;20489;-51
2023/09/30 06:42:35;;;;;;;0.40;0.20;;;;;;;14.12;100.00;101280.19;4994251;28;20622;-51
2023/09/30 06:45:05;;;;;;;0.40;0.20;;;;;;;14.26;100.00;101278.00;4984116;28;20473;-51
2023/09/30 06:47:36;;;;;;;0.40;0.20;;;;;;;14.31;100.00;101285.91;4992156;28;20500;-52
2023/09/30 06:50:08;;;;;;;0.40;0.20;;;;;;;14.41;100.00;101293.63;4994262;28;20456;-52
2023/09/30 06:52:36;;;;;;;0.40;0.20;;;;;;;14.43;99.79;101291.78;4993930;28;20485;-50
2023/09/30 06:55:06;;;;;;;0.40;0.20;;;;;;;14.53;100.00;101295.13;4994210;28;20445;-51
2023/09/30 06:57:37;;;;;;;0.40;0.20;;;;;;;14.72;99.83;101303.47;4968400;28;20554;-51
2023/09/30 07:00:09;;;;;;;0.40;0.20;;;;;;;14.71;100.00;101320.47;4994075;28;20457;-51
2023/09/30 07:02:36;;;;;;;0.40;0.20;;;;;;;14.75;100.00;101332.81;4994166;28;20453;-50
2023/09/30 07:05:14;;;;;;;0.40;0.20;;;;;;;14.76;100.00;101339.91;4993238;28;20544;-51
2023/09/30 07:07:45;;;;;;;0.40;0.20;;;;;;;15.13;99.65;101336.16;4989052;28;20484;-51
2023/09/30 07:10:12;;;;;;;0.40;0.20;;;;;;;15.14;99.37;101329.88;4978929;28;20428;-54
2023/09/30 07:12:39;;;;;;;0.40;0.20;;;;;;;15.26;99.09;101318.78;4993970;28;20993;-51
2023/09/30 07:15:07;;;;;;;0.40;0.20;;;;;;;15.11;100.00;101306.75;4988004;28;20449;-51
2023/09/30 07:17:34;;;;;;;0.40;0.20;;;;;;;15.44;98.73;101291.41;4993430;28;20528;-52
2023/09/30 07:20:02;;;;;;;0.40;0.20;;;;;;;15.37;99.05;101303.25;4993824;28;20946;-52
2023/09/30 07:22:28;;;;;;;0.40;0.20;;;;;;;15.39;99.51;101309.44;4993195;28;20488;-52
2023/09/30 07:25:13;;;;;;;0.40;0.20;;;;;;;15.34;98.72;101306.88;4970526;28;20552;-51
2023/09/30 07:27:40;;;;;;;0.40;0.20;;;;;;;15.24;100.00;101308.13;4993517;28;20501;-52
2023/09/30 07:30:07;;;;;;;0.40;0.20;;;;;;;15.39;99.68;101317.47;4985871;28;20523;-52
2023/09/30 07:32:33;;;;;;;0.40;0.20;;;;;;;15.57;99.51;101327.59;4988586;28;20947;-52
2023/09/30 07:35:00;;;;;;;0.40;0.20;;;;;;;15.51;98.53;101330.47;4993662;28;20457;-52
2023/09/30 07:37:26;;;;;;;1.20;1.20;;;;;;;15.85;98.47;101322.22;4990218;28;21046;-52
2023/09/30 07:39:53;;;;;;;0.40;0.20;;;;;;;15.94;97.29;101326.41;4993378;28;20453;-52
2023/09/30 07:42:19;;;;;;;0.40;0.20;;;;;;;16.08;97.30;101321.44;4993043;28;20872;-52
2023/09/30 07:44:46;;;;;;;0.40;0.20;;;;;;;16.27;96.37;101318.97;4985715;28;20454;-52
2023/09/30 07:47:12;;;;;;;0.40;0.20;;;;;;;16.09;96.33;101309.78;4988747;28;20472;-52
2023/09/30 07:49:39;;;;;;;0.40;0.20;;;;;;;15.98;97.65;101315.50;4993461;28;20456;-52
2023/09/30 07:52:05;;;;;;;0.40;0.20;;;;;;;16.04;97.54;101325.19;4993444;28;20460;-52
2023/09/30 07:54:31;;;;;;;0.40;0.20;;;;;;;16.11;97.51;101321.34;4993359;28;20544;-52
2023/09/30 07:56:59;;;;;;;0.40;0.20;;;;;;;16.29;97.22;101309.06;4993039;28;20842;-52
2023/09/30 07:59:27;;;;;;;0.40;0.20;;;;;;;16.28;96.59;101308.19;4975990;28;20910;-51
2023/09/30 08:01:53;;;;;;;0.40;0.20;;;;;;;16.36;96.15;101315.09;4993051;28;20452;-51
2023/09/30 08:04:20;;;;;;;0.87;0.87;;;;;;;16.79;94.51;101312.63;4993508;28;20486;-51
2023/09/30 08:06:47;;;;;;;0.53;0.50;;;;;;;16.54;94.81;101317.97;4975847;28;20507;-52
2023/09/30 08:09:14;;;;;;;0.40;0.20;;;;;;;16.73;95.24;101320.91;4975951;28;20454;-48
2023/09/30 08:11:40;;;;;;;0.40;0.20;;;;;;;16.82;94.75;101319.69;4989881;28;20515;-48
2023/09/30 08:14:09;;;;;;;0.40;0.20;;;;;;;16.81;94.34;101318.81;4990740;28;20430;-48
2023/09/30 08:16:36;;;;;;;0.40;0.20;;;;;;;16.90;94.42;101319.41;4990548;28;20464;-48
2023/09/30 08:19:03;;;;;;;0.60;0.60;;;;;;;17.10;94.39;101328.44;4997134;28;20476;-50
2023/09/30 08:21:30;;;;;;;0.40;0.20;;;;;;;17.36;92.93;101335.47;4996942;28;20960;-49
2023/09/30 08:23:57;;;;;;;0.50;0.20;;;;;;;17.39;93.03;101329.97;4996904;28;20454;-48
2023/09/30 08:26:23;;;;;;;0.40;0.20;;;;;;;17.72;92.08;101343.03;4983617;28;20994;-49
2023/09/30 08:28:50;;;;;;;0.40;0.20;;;;;;;17.90;91.00;101336.88;4996786;28;20467;-49
2023/09/30 08:31:16;;;;;;;0.40;0.20;;;;;;;17.58;91.38;101331.94;4983497;28;20537;-49
2023/09/30 08:33:45;;;;;;;0.40;0.20;;;;;;;18.25;89.19;101331.81;4996659;28;20511;-49
2023/09/30 08:36:12;;;;;;;0.40;0.20;;;;;;;17.46;91.04;101344.91;4996592;28;20424;-49
2023/09/30 08:38:40;;;;;;;0.40;0.20;;;;;;;17.58;92.18;101346.25;4993518;28;20505;-49
2023/09/30 08:41:07;;;;;;;0.40;0.20;;;;;;;18.22;90.05;101343.56;4996260;28;20456;-49
2023/09/30 08:43:39;;;;;;;0.40;0.20;;;;;;;18.04;89.96;101349.72;4996148;28;20532;-49
2023/09/30 08:46:07;;;;;;;0.40;0.20;;;;;;;17.92;90.88;101347.56;4983840;28;20427;-49
2023/09/30 08:48:34;;;;;;;0.40;0.20;;;;;;;18.21;88.79;101341.81;4996377;28;20471;-50
2023/09/30 08:51:02;;;;;;;0.40;0.20;;;;;;;18.45;87.80;101347.94;4996134;28;20458;-49
2023/09/30 08:53:29;;;;;;;0.40;0.20;;;;;;;18.30;87.59;101341.41;4996166;28;20876;-49
2023/09/30 08:55:58;;;;;;;0.40;0.20;;;;;;;17.99;88.60;101339.19;4970335;28;20453;-50
2023/09/30 08:58:29;;;;;;;0.40;0.20;;;;;;;18.06;89.17;101343.34;4996164;28;20523;-49
2023/09/30 09:00:56;;;;;;;0.40;0.20;;;;;;;18.36;88.48;101342.94;4996407;28;20484;-49
2023/09/30 09:03:23;;;;;;;0.40;0.20;;;;;;;18.30;87.27;101344.09;4996227;28;20499;-49
2023/09/30 09:05:55;;;;;;;0.50;0.40;;;;;;;18.74;85.44;101353.88;4996113;28;20420;-50
2023/09/30 09:08:25;;;;;;;0.40;0.20;;;;;;;18.93;84.58;101346.72;4985366;28;20496;-50
2023/09/30 09:10:57;;;;;;;0.40;0.20;;;;;;;19.13;83.92;101346.63;4985281;28;20456;-51
2023/09/30 09:13:24;;;;;;;0.40;0.20;;;;;;;19.09;82.76;101349.56;4995935;28;20484;-50
2023/09/30 09:16:07;;;;;;;0.40;0.20;;;;;;;18.40;83.32;101349.09;4989339;28;20791;-49
2023/09/30 09:18:38;;;;;;;0.40;0.20;;;;;;;18.70;81.22;101346.88;4995699;28;20444;-49
2023/09/30 09:21:12;;;;;;;0.40;0.20;;;;;;;19.02;81.29;101342.69;4995669;28;20803;-48
2023/09/30 09:23:46;;;;;;;0.40;0.20;;;;;;;19.06;77.58;101345.19;4971998;28;20420;-48
2023/09/30 09:26:31;;;;;;;0.40;0.20;;;;;;;19.31;76.98;101344.00;4995709;28;20496;-48
2023/09/30 09:29:04;;;;;;;0.40;0.20;;;;;;;19.53;74.70;101342.03;4994644;28;20529;-49
2023/09/30 09:31:36;;;;;;;0.40;0.20;;;;;;;19.43;76.18;101336.22;4982431;28;20417;-47
2023/09/30 09:34:12;;;;;;;0.40;0.20;;;;;;;19.12;76.26;101352.09;4995750;28;20456;-48
2023/09/30 09:36:41;;;;;;;0.40;0.20;;;;;;;18.91;75.11;101351.28;4995371;28;20610;-50
2023/09/30 09:39:07;;;;;;;0.40;0.20;;;;;;;19.49;72.50;101351.22;4992597;28;20933;-49
2023/09/30 09:41:50;;;;;;;0.40;0.20;;;;;;;19.13;75.55;101354.72;4995297;28;20454;-48
2023/09/30 09:44:20;;;;;;;0.40;0.20;;;;;;;18.68;76.48;101355.03;4974384;28;20939;-48
2023/09/30 09:46:48;;;;;;;0.40;0.20;;;;;;;18.87;76.47;101352.38;4987492;28;20447;-49
2023/09/30 09:49:19;;;;;;;0.40;0.20;;;;;;;19.28;76.74;101342.34;4995172;28;20493;-49
2023/09/30 09:51:47;;;;;;;0.40;0.20;;;;;;;18.94;76.37;101343.94;4995620;28;20420;-49
2023/09/30 09:54:15;;;;;;;0.40;0.20;;;;;;;19.02;76.03;101340.88;4995704;28;20959;-50
2023/09/30 09:56:44;;;;;;;0.77;0.77;;;;;;;19.26;75.93;101332.59;4994692;28;20592;-49
2023/09/30 09:59:12;;;;;;;0.40;0.20;;;;;;;19.37;77.36;101325.72;4994932;28;20782;-49
2023/09/30 10:01:42;;;;;;;0.40;0.30;;;;;;;19.76;75.97;101319.34;4981693;28;20453;-49
2023/09/30 10:04:15;;;;;;;0.40;0.20;;;;;;;19.63;75.07;101315.53;4995023;28;20428;-49
2023/09/30 10:06:47;;;;;;;0.40;0.20;;;;;;;20.06;74.87;101307.00;4994621;28;20466;-49
2023/09/30 10:09:17;;;;;;;0.40;0.20;;;;;;;20.00;76.15;101303.72;4977257;28;20543;-51
2023/09/30 10:11:44;;;;;;;0.40;0.20;;;;;;;19.94;75.82;101307.63;4992424;28;20457;-49
2023/09/30 10:14:32;;;;;;;0.40;0.20;;;;;;;20.23;72.96;101297.13;4991864;28;20436;-49
2023/09/30 10:16:59;;;;;;;0.40;0.20;;;;;;;20.39;72.38;101298.94;4970964;28;20497;-50
2023/09/30 10:19:27;;;;;;;0.40;0.20;;;;;;;20.77;71.88;101296.03;4994496;28;20460;-48
2023/09/30 10:22:19;;;;;;;0.40;0.20;;;;;;;20.64;71.88;101294.97;4994307;28;20938;-48
2023/09/30 10:24:48;;;;;;;0.40;0.20;;;;;;;21.08;71.76;101297.03;4994500;28;20481;-49
2023/09/30 10:27:24;;;;;;;0.40;0.20;;;;;;;20.85;71.79;101290.22;4994202;28;20960;-48
2023/09/30 10:30:05;;;;;;;0.40;0.20;;;;;;;21.30;70.92;101284.09;4962912;28;20501;-49
2023/09/30 10:32:50;;;;;;;0.40;0.20;;;;;;;21.03;70.30;101291.03;4989190;28;20431;-48
2023/09/30 10:35:18;;;;;;;0.40;0.20;;;;;;;20.58;69.91;101298.00;4994621;28;20428;-48
2023/09/30 10:37:45;;;;;;;0.40;0.20;;;;;;;20.81;70.99;101289.50;4991404;28;20850;-48
2023/09/30 10:40:31;;;;;;;0.40;0.20;;;;;;;20.10;73.10;101291.50;4994070;28;20432;-48
2023/09/30 10:42:57;;;;;;;0.40;0.20;;;;;;;20.21;72.21;101302.63;4969771;28;20454;-48
2023/09/30 10:45:38;;;;;;;0.40;0.20;;;;;;;20.48;72.33;101297.63;4981835;28;20931;-48
2023/09/30 10:48:36;;;;;;;0.40;0.20;;;;;;;20.23;72.16;101298.00;4993972;28;20530;-48
2023/09/30 10:51:12;;;;;;;0.40;0.20;;;;;;;20.27;72.11;101296.00;4993913;28;20496;-48
2023/09/30 10:53:46;;;;;;;0.40;0.20;;;;;;;19.92;73.07;101292.47;4993914;28;20518;-48
2023/09/30 10:56:13;;;;;;;0.40;0.20;;;;;;;20.06;71.47;101298.03;4993980;28;20486;-49
2023/09/30 10:58:50;;;;;;;0.40;0.20;;;;;;;20.55;70.73;101290.03;4993744;28;20465;-49
2023/09/30 11:01:21;;;;;;;0.40;0.20;;;;;;;20.21;71.47;101289.13;4993934;28;20838;-49
2023/09/30 11:03:53;;;;;;;0.40;0.20;;;;;;;20.42;70.85;101284.41;4994186;28;20436;-48
2023/09/30 11:06:21;;;;;;;0.40;0.20;;;;;;;20.70;70.22;101278.44;4993922;28;20795;-48
2023/09/30 11:08:56;;;;;;;0.40;0.20;;;;;;;20.63;70.57;101279.69;4968400;28;20473;-48
2023/09/30 11:11:52;;;;;;;0.40;0.20;;;;;;;20.65;69.63;101291.28;4988528;28;20922;-48
2023/09/30 11:14:25;;;;;;;0.40;0.20;;;;;;;20.84;69.28;101299.28;4990073;28;20446;-50
2023/09/30 11:16:58;;;;;;;0.40;0.20;;;;;;;20.52;70.18;101296.50;4968050;28;20515;-50
2023/09/30 11:19:24;;;;;;;0.40;0.20;;;;;;;20.80;69.65;101301.25;4993577;28;20897;-49
2023/09/30 11:21:55;;;;;;;0.40;0.20;;;;;;;21.06;69.47;101299.81;4993693;28;20454;-48
2023/09/30 11:24:23;;;;;;;0.40;0.20;;;;;;;21.11;69.22;101296.88;4993972;28;20464;-48
2023/09/30 11:26:53;;;;;;;0.40;0.20;;;;;;;20.96;69.46;101295.88;4993624;28;20435;-48
2023/09/30 11:29:20;;;;;;;0.40;0.20;;;;;;;20.92;68.31;101297.88;4991989;28;20555;-48
2023/09/30 11:31:50;;;;;;;0.40;0.20;;;;;;;20.97;69.24;101294.94;4982552;28;20537;-48